Terminal Aerodrome Forecast
Issued by NWS

Home | Current Version | Previous Version | Graphics & Text | Print | Product List | Glossary On
Versions: 1 2 3 4 5 6 7 8 9 10 11 12
838
FTUS43 KGRB 181720
TAFAUW
TAF
KAUW 181720Z 1818/1918 20013G21KT P6SM SCT250
     FM182300 23009KT P6SM SCT150 WS020/25035KT
     FM190300 27006KT P6SM SKC=

USA.gov is the U.S. government's official web portal to all federal, state and local government web resources and services.